Time;durP1;ratioP1;P1;durP2;ratioP2;P2;SDS_P1;SDS_P2;PMS_P1;PMS_P2;Temp;Humidity;BMP_temperature;BMP_pressure;BME280_temperature;BME280_humidity;BME280_pressure;Samples;Min_cycle;Max_cycle;Signal;HPM_P1;HPM_P2
2021/04/02 00:02:14;;;;;;;;;;;;;;;25.62;22.64;99627.09;5327934;26;33091;-91
2021/04/02 00:04:42;;;;;;;;;;;;;;;26.04;21.93;99622.25;5327406;26;32735;-91
2021/04/02 00:07:09;;;;;;;;;;;;;;;25.41;22.55;99621.97;5327480;26;32314;-91
2021/04/02 00:09:36;;;;;;;;;;;;;;;24.98;22.92;99616.19;5327091;26;33717;-90
2021/04/02 00:12:04;;;;;;;;;;;;;;;25.36;22.32;99616.22;5346102;26;34092;-92
2021/04/02 00:14:31;;;;;;;;;;;;;;;25.43;22.21;99621.81;5346173;26;34047;-91
2021/04/02 00:16:58;;;;;;;;;;;;;;;24.66;23.04;99612.03;5327679;26;32150;-91
2021/04/02 00:19:25;;;;;;;;;;;;;;;25.36;22.26;99624.22;5346873;26;33673;-91
2021/04/02 00:21:52;;;;;;;;;;;;;;;25.15;22.48;99622.56;5328376;26;34035;-92
2021/04/02 00:24:19;;;;;;;;;;;;;;;25.39;22.22;99617.78;5328461;26;32776;-92
2021/04/02 00:26:47;;;;;;;;;;;;;;;25.28;22.33;99616.09;5328663;26;32087;-92
2021/04/02 00:29:14;;;;;;;;;;;;;;;24.96;22.86;99609.31;5336867;26;32902;-92
2021/04/02 00:31:42;;;;;;;;;;;;;;;24.95;22.88;99603.13;5339672;26;33477;-90
2021/04/02 00:34:09;;;;;;;;;;;;;;;24.85;22.95;99607.66;5339401;26;32603;-91
2021/04/02 00:36:36;;;;;;;;;;;;;;;25.27;22.43;99609.91;5357546;26;34005;-90
2021/04/02 00:39:04;;;;;;;;;;;;;;;25.25;22.40;99603.91;5357921;26;34184;-91
2021/04/02 00:41:31;;;;;;;;;;;;;;;25.27;22.38;99607.25;5331942;26;32999;-91
2021/04/02 00:44:00;;;;;;;;;;;;;;;25.00;22.74;99610.69;5329205;26;33005;-91
2021/04/02 00:46:27;;;;;;;;;;;;;;;24.57;23.40;99599.53;5328396;26;32012;-92
2021/04/02 00:48:55;;;;;;;;;;;;;;;24.91;23.01;99599.06;5328225;26;32983;-92
2021/04/02 00:51:24;;;;;;;;;;;;;;;24.94;22.89;99604.13;5328726;26;32862;-91
2021/04/02 00:53:51;;;;;;;;;;;;;;;24.76;23.12;99611.19;5328307;26;32974;-91
2021/04/02 00:56:20;;;;;;;;;;;;;;;24.94;22.92;99612.13;5329143;26;32022;-92
2021/04/02 00:58:47;;;;;;;;;;;;;;;25.14;22.66;99612.06;5330776;26;33149;-91
2021/04/02 01:01:14;;;;;;;;;;;;;;;25.15;22.74;99613.75;5331523;26;33313;-91
2021/04/02 01:03:43;;;;;;;;;;;;;;;25.47;22.38;99620.53;5313270;26;33031;-91
2021/04/02 01:06:17;;;;;;;;;;;;;;;24.68;23.40;99628.69;5330620;26;32199;-92
2021/04/02 01:08:46;;;;;;;;;;;;;;;24.82;23.25;99623.91;5348055;26;34215;-91
2021/04/02 01:11:15;;;;;;;;;;;;;;;24.61;23.42;99621.38;5328878;26;33043;-91
2021/04/02 01:13:45;;;;;;;;;;;;;;;24.90;23.11;99620.53;5328390;26;32892;-91
2021/04/02 01:16:13;;;;;;;;;;;;;;;24.64;23.45;99618.47;5346436;26;33228;-92
2021/04/02 01:18:47;;;;;;;;;;;;;;;24.84;23.22;99617.44;5346111;26;33150;-92
2021/04/02 01:21:16;;;;;;;;;;;;;;;24.98;23.01;99610.00;5328501;26;33178;-93
2021/04/02 01:24:00;;;;;;;;;;;;;;;23.99;24.50;99614.47;5346714;26;33165;-92
2021/04/02 01:26:39;;;;;;;;;;;;;;;24.47;23.89;99606.66;5346658;26;32072;-91
2021/04/02 01:29:14;;;;;;;;;;;;;;;24.23;24.18;99601.75;5327633;26;32566;-91
2021/04/02 01:31:43;;;;;;;;;;;;;;;23.60;25.08;99602.84;5309952;26;32925;-91
2021/04/02 01:34:10;;;;;;;;;;;;;;;21.94;27.65;99605.16;5346172;26;33416;-91
2021/04/02 01:36:39;;;;;;;;;;;;;;;22.41;27.08;99613.72;5327938;26;32292;-90
2021/04/02 01:39:07;;;;;;;;;;;;;;;23.00;26.18;99607.03;5309730;26;33980;-91
2021/04/02 01:41:35;;;;;;;;;;;;;;;23.37;25.63;99615.50;5328029;26;33258;-93
2021/04/02 01:44:02;;;;;;;;;;;;;;;23.29;25.73;99616.16;5328185;26;33794;-94
2021/04/02 01:46:30;;;;;;;;;;;;;;;23.64;25.23;99601.59;5328202;26;32237;-92
2021/04/02 01:48:58;;;;;;;;;;;;;;;23.76;25.08;99605.00;5346390;26;32535;-92
2021/04/02 01:51:27;;;;;;;;;;;;;;;24.14;24.57;99614.06;5310003;26;33856;-93
2021/04/02 01:53:56;;;;;;;;;;;;;;;23.49;25.47;99612.63;5328312;26;33974;-93
2021/04/02 01:56:23;;;;;;;;;;;;;;;24.29;24.10;99606.50;5328518;26;32210;-91
2021/04/02 01:58:53;;;;;;;;;;;;;;;23.88;24.62;99613.69;5328870;26;33201;-92
2021/04/02 02:01:23;;;;;;;;;;;;;;;24.35;23.82;99614.78;5347425;26;34050;-93
2021/04/02 02:03:53;;;;;;;;;;;;;;;23.23;25.23;99622.84;5346653;26;32729;-93
2021/04/02 02:06:24;;;;;;;;;;;;;;;24.00;24.10;99624.12;5346627;26;33376;-92
2021/04/02 02:08:57;;;;;;;;;;;;;;;24.39;23.31;99635.81;5328603;26;32966;-93
2021/04/02 02:11:27;;;;;;;;;;;;;;;24.81;22.72;99624.88;5346365;26;35007;-94
2021/04/02 02:14:14;;;;;;;;;;;;;;;24.83;22.45;99629.09;5328293;26;32910;-93
2021/04/02 02:16:43;;;;;;;;;;;;;;;24.82;22.57;99622.09;5327858;26;33469;-93
2021/04/02 02:19:13;;;;;;;;;;;;;;;24.88;22.81;99630.50;5309485;26;32802;-90
2021/04/02 02:21:45;;;;;;;;;;;;;;;25.00;22.73;99626.69;5310046;26;33108;-91
2021/04/02 02:24:14;;;;;;;;;;;;;;;25.04;22.62;99625.41;5310363;26;33451;-91
2021/04/02 02:26:42;;;;;;;;;;;;;;;25.27;21.98;99633.91;5309327;26;32790;-92
2021/04/02 02:29:16;;;;;;;;;;;;;;;25.45;21.86;99628.69;5330106;26;35205;-91
2021/04/02 02:31:45;;;;;;;;;;;;;;;25.61;21.71;99622.72;5309764;26;33248;-90
2021/04/02 02:34:12;;;;;;;;;;;;;;;25.68;21.72;99636.31;5327514;26;33706;-93
2021/04/02 02:36:41;;;;;;;;;;;;;;;25.12;23.00;99630.03;5346550;26;33261;-92
2021/04/02 02:39:14;;;;;;;;;;;;;;;25.29;22.88;99631.12;5328310;26;32803;-93
2021/04/02 02:41:43;;;;;;;;;;;;;;;24.06;24.90;99620.06;5309610;26;33933;-92
2021/04/02 02:44:12;;;;;;;;;;;;;;;24.01;25.24;99609.00;5313014;26;32684;-91
2021/04/02 02:46:40;;;;;;;;;;;;;;;24.40;25.08;99621.50;5348834;26;32293;-90
2021/04/02 02:49:12;;;;;;;;;;;;;;;24.23;25.75;99618.56;5368365;26;33200;-91
2021/04/02 02:51:39;;;;;;;;;;;;;;;24.29;25.51;99622.47;5311618;26;32781;-91
2021/04/02 02:54:08;;;;;;;;;;;;;;;24.50;25.08;99622.34;5310125;26;32968;-92
2021/04/02 02:56:37;;;;;;;;;;;;;;;24.68;24.58;99626.03;5329817;26;32859;-91
2021/04/02 02:59:06;;;;;;;;;;;;;;;24.74;24.52;99616.62;5346479;26;34479;-91
2021/04/02 03:01:35;;;;;;;;;;;;;;;24.60;24.69;99623.19;5309900;26;32957;-92
2021/04/02 03:04:05;;;;;;;;;;;;;;;24.76;24.53;99622.66;5328681;26;32714;-90
2021/04/02 03:06:33;;;;;;;;;;;;;;;24.37;25.16;99630.63;5309144;26;31992;-91
2021/04/02 03:09:00;;;;;;;;;;;;;;;24.63;24.74;99632.75;5345945;26;32880;-91
2021/04/02 03:11:29;;;;;;;;;;;;;;;24.16;25.32;99639.56;5328042;26;33865;-91
2021/04/02 03:13:56;;;;;;;;;;;;;;;22.57;27.64;99645.16;5327768;26;33884;-91
2021/04/02 03:16:24;;;;;;;;;;;;;;;23.30;26.51;99650.56;5327703;26;32785;-91
2021/04/02 03:18:54;;;;;;;;;;;;;;;22.40;27.73;99651.84;5310079;26;33188;-90
2021/04/02 03:21:21;;;;;;;;;;;;;;;23.32;26.47;99653.94;5327575;26;33918;-91
2021/04/02 03:23:50;;;;;;;;;;;;;;;23.67;25.87;99650.03;5327668;26;32966;-91
2021/04/02 03:26:18;;;;;;;;;;;;;;;23.88;25.62;99657.13;5328022;26;31730;-90
2021/04/02 03:28:46;;;;;;;;;;;;;;;24.12;25.22;99650.63;5345932;26;32549;-91
2021/04/02 03:31:14;;;;;;;;;;;;;;;24.14;25.26;99648.66;5309768;26;32949;-93
2021/04/02 03:33:49;;;;;;;;;;;;;;;24.16;25.27;99654.72;5327586;26;34226;-93
2021/04/02 03:36:17;;;;;;;;;;;;;;;24.31;24.98;99649.81;5327504;26;32086;-92
2021/04/02 03:38:45;;;;;;;;;;;;;;;24.09;25.11;99648.22;5345756;26;32829;-92
2021/04/02 03:41:14;;;;;;;;;;;;;;;24.40;24.74;99650.78;5309679;26;33234;-92
2021/04/02 03:43:41;;;;;;;;;;;;;;;24.28;24.95;99660.75;5327789;26;33111;-92
2021/04/02 03:46:09;;;;;;;;;;;;;;;24.18;25.07;99666.91;5327897;26;32087;-92
2021/04/02 03:48:38;;;;;;;;;;;;;;;24.15;25.09;99664.50;5346114;26;34116;-92
2021/04/02 03:51:08;;;;;;;;;;;;;;;24.25;25.00;99669.00;5328209;26;34079;-92
2021/04/02 03:53:44;;;;;;;;;;;;;;;24.38;24.87;99663.41;5309393;26;33160;-93
2021/04/02 03:56:15;;;;;;;;;;;;;;;24.59;24.58;99671.28;5346044;26;32223;-92
2021/04/02 03:58:44;;;;;;;;;;;;;;;24.29;25.07;99671.25;5327936;26;34050;-91
2021/04/02 04:01:21;;;;;;;;;;;;;;;24.71;24.51;99675.50;5328900;26;33072;-91
2021/04/02 04:03:52;;;;;;;;;;;;;;;24.13;25.23;99665.59;5328728;26;33168;-91
2021/04/02 04:06:21;;;;;;;;;;;;;;;23.98;25.52;99663.31;5328114;26;33440;-91
2021/04/02 04:08:53;;;;;;;;;;;;;;;24.02;25.49;99666.56;5346123;26;33991;-92
2021/04/02 04:11:21;;;;;;;;;;;;;;;24.38;24.91;99666.91;5345958;26;32882;-91
2021/04/02 04:13:49;;;;;;;;;;;;;;;24.39;24.95;99670.44;5327464;26;33967;-90
2021/04/02 04:16:17;;;;;;;;;;;;;;;24.64;24.58;99671.75;5327492;26;32635;-92
2021/04/02 04:18:47;;;;;;;;;;;;;;;24.17;25.21;99670.53;5309404;26;33252;-92
2021/04/02 04:21:15;;;;;;;;;;;;;;;24.54;24.70;99663.69;5310044;26;33295;-93
2021/04/02 04:23:42;;;;;;;;;;;;;;;24.07;25.32;99660.84;5327446;26;34085;-92
2021/04/02 04:26:10;;;;;;;;;;;;;;;24.20;25.07;99661.44;5327769;26;32649;-92
2021/04/02 04:28:38;;;;;;;;;;;;;;;24.43;24.79;99663.84;5328579;26;33891;-93
2021/04/02 04:31:07;;;;;;;;;;;;;;;24.18;25.05;99661.56;5329187;26;33193;-91
2021/04/02 04:33:36;;;;;;;;;;;;;;;23.99;25.35;99659.69;5330256;26;32601;-91
2021/04/02 04:36:03;;;;;;;;;;;;;;;24.40;24.82;99662.31;5329366;26;32521;-92
2021/04/02 04:38:31;;;;;;;;;;;;;;;24.50;24.77;99659.63;5328494;26;33058;-92
2021/04/02 04:40:59;;;;;;;;;;;;;;;24.47;24.83;99660.75;5328288;26;33217;-92
2021/04/02 04:43:26;;;;;;;;;;;;;;;24.32;25.11;99657.66;5327694;26;32889;-91
2021/04/02 04:45:53;;;;;;;;;;;;;;;24.06;25.46;99665.31;5326982;26;32175;-91
2021/04/02 04:48:21;;;;;;;;;;;;;;;24.77;24.46;99664.31;5327191;26;33222;-93
2021/04/02 04:50:48;;;;;;;;;;;;;;;24.35;25.04;99661.88;5327029;26;32545;-91
2021/04/02 04:53:19;;;;;;;;;;;;;;;24.46;24.93;99682.19;5327081;26;33711;-92
2021/04/02 04:55:47;;;;;;;;;;;;;;;24.23;25.25;99677.12;5345752;26;33140;-91
2021/04/02 04:58:15;;;;;;;;;;;;;;;24.40;25.10;99688.06;5327088;26;32965;-91
2021/04/02 05:00:42;;;;;;;;;;;;;;;24.28;25.42;99684.72;5345139;26;34255;-91
2021/04/02 05:03:11;;;;;;;;;;;;;;;24.06;25.96;99683.09;5327505;26;32905;-92
2021/04/02 05:05:40;;;;;;;;;;;;;;;24.25;25.83;99685.81;5327938;26;32045;-92
2021/04/02 05:08:08;;;;;;;;;;;;;;;24.23;26.22;99693.09;5328115;26;32783;-92
2021/04/02 05:10:35;;;;;;;;;;;;;;;23.79;26.85;99687.19;5328437;26;34214;-92
2021/04/02 05:13:03;;;;;;;;;;;;;;;23.81;26.91;99693.22;5328107;26;33784;-91
2021/04/02 05:15:30;;;;;;;;;;;;;;;24.10;26.70;99690.66;5346665;26;33710;-92
2021/04/02 05:17:57;;;;;;;;;;;;;;;23.99;26.59;99696.13;5328027;26;33313;-91
2021/04/02 05:20:31;;;;;;;;;;;;;;;24.10;26.40;99705.81;5328120;26;33127;-91
2021/04/02 05:22:59;;;;;;;;;;;;;;;24.03;26.14;99704.69;5328186;26;32828;-91
2021/04/02 05:25:26;;;;;;;;;;;;;;;24.48;25.49;99705.03;5328157;26;31698;-91
2021/04/02 05:27:55;;;;;;;;;;;;;;;24.16;25.99;99702.63;5346392;26;33134;-90
2021/04/02 05:30:22;;;;;;;;;;;;;;;24.23;25.96;99710.91;5346539;26;34213;-90
2021/04/02 05:32:50;;;;;;;;;;;;;;;24.10;26.18;99706.63;5346302;26;34779;-92
2021/04/02 05:35:17;;;;;;;;;;;;;;;24.49;25.72;99711.19;5320141;26;885474;-92
2021/04/02 05:37:44;;;;;;;;;;;;;;;24.32;25.96;99708.25;5342937;26;34007;-90
2021/04/02 05:40:12;;;;;;;;;;;;;;;24.42;25.95;99704.75;5327842;26;32998;-90
2021/04/02 05:42:40;;;;;;;;;;;;;;;24.42;25.92;99724.22;5346494;26;34449;-92
2021/04/02 05:45:08;;;;;;;;;;;;;;;24.27;26.14;99720.28;5328232;26;32211;-92
2021/04/02 05:47:35;;;;;;;;;;;;;;;24.36;25.87;99722.12;5327615;26;33139;-93
2021/04/02 05:50:02;;;;;;;;;;;;;;;24.10;26.20;99730.59;5346414;26;34679;-94
2021/04/02 05:52:30;;;;;;;;;;;;;;;24.03;26.43;99739.28;5328072;26;34242;-91
2021/04/02 05:54:57;;;;;;;;;;;;;;;24.44;25.83;99737.44;5328036;26;32312;-90
2021/04/02 05:57:25;;;;;;;;;;;;;;;23.60;26.59;99733.13;5327111;26;32866;-91
2021/04/02 05:59:52;;;;;;;;;;;;;;;23.71;26.19;99729.59;5327596;26;33212;-92
2021/04/02 06:02:19;;;;;;;;;;;;;;;24.23;25.50;99734.84;5327378;26;32976;-90
2021/04/02 06:04:47;;;;;;;;;;;;;;;23.81;26.41;99738.44;5327901;26;33402;-91
2021/04/02 06:07:25;;;;;;;;;;;;;;;24.27;25.74;99726.44;5331318;26;32863;-90
2021/04/02 06:09:52;;;;;;;;;;;;;;;24.05;26.06;99731.97;5327994;26;33324;-91
2021/04/02 06:12:25;;;;;;;;;;;;;;;24.24;25.73;99721.41;5356268;26;34689;-92
2021/04/02 06:14:53;;;;;;;;;;;;;;;24.58;25.14;99720.19;5333168;26;32122;-91
2021/04/02 06:17:20;;;;;;;;;;;;;;;24.72;24.63;99716.31;5330118;26;33358;-91
2021/04/02 06:20:02;;;;;;;;;;;;;;;24.50;24.87;99720.88;5352190;26;32865;-93
2021/04/02 06:22:30;;;;;;;;;;;;;;;24.53;24.96;99731.28;5358117;26;34051;-93
2021/04/02 06:25:01;;;;;;;;;;;;;;;24.82;24.60;99734.00;5332301;26;32524;-92
2021/04/02 06:27:29;;;;;;;;;;;;;;;25.09;24.34;99743.09;5347447;26;32984;-92
2021/04/02 06:30:03;;;;;;;;;;;;;;;24.98;24.46;99740.56;5332681;26;33333;-91
2021/04/02 06:32:34;;;;;;;;;;;;;;;24.81;25.04;99747.44;5329505;26;32881;-91
2021/04/02 06:35:07;;;;;;;;;;;;;;;24.23;26.11;99753.47;5327173;26;32235;-90
2021/04/02 06:37:35;;;;;;;;;;;;;;;25.06;24.84;99745.22;5327016;26;32736;-91
2021/04/02 06:40:03;;;;;;;;;;;;;;;25.37;24.45;99732.59;5327792;26;32907;-90
2021/04/02 06:42:31;;;;;;;;;;;;;;;25.48;24.29;99734.25;5327999;26;32863;-91
2021/04/02 06:45:01;;;;;;;;;;;;;;;25.42;24.42;99737.47;5327182;26;32478;-90
2021/04/02 06:47:31;;;;;;;;;;;;;;;25.59;24.10;99738.56;5327148;26;33479;-92
2021/04/02 06:49:59;;;;;;;;;;;;;;;25.20;24.44;99743.94;5326222;26;33922;-91
2021/04/02 06:52:26;;;;;;;;;;;;;;;25.52;23.99;99748.97;5308038;26;33151;-91
2021/04/02 06:54:54;;;;;;;;;;;;;;;25.24;24.09;99743.50;5326058;26;31952;-92
2021/04/02 06:57:21;;;;;;;;;;;;;;;25.05;24.10;99752.38;5326132;26;32865;-91
2021/04/02 06:59:48;;;;;;;;;;;;;;;24.87;24.31;99746.06;5326228;26;34412;-90
2021/04/02 07:02:15;;;;;;;;;;;;;;;25.09;24.01;99745.78;5326044;26;33802;-90
2021/04/02 07:04:43;;;;;;;;;;;;;;;24.97;24.30;99736.22;5326412;26;31811;-91
2021/04/02 07:07:10;;;;;;;;;;;;;;;25.24;23.97;99734.69;5344589;26;33198;-91
2021/04/02 07:09:38;;;;;;;;;;;;;;;24.67;24.57;99746.88;5326420;26;34103;-92
2021/04/02 07:12:06;;;;;;;;;;;;;;;24.88;24.38;99740.59;5326701;26;33826;-91
2021/04/02 07:14:33;;;;;;;;;;;;;;;25.32;23.88;99748.13;5344379;26;33816;-92
2021/04/02 07:17:00;;;;;;;;;;;;;;;25.57;23.42;99754.72;5327462;26;32996;-92
2021/04/02 07:19:28;;;;;;;;;;;;;;;24.87;24.33;99760.22;5346332;26;33729;-91
2021/04/02 07:21:55;;;;;;;;;;;;;;;25.29;23.82;99759.94;5327841;26;32737;-92
2021/04/02 07:24:22;;;;;;;;;;;;;;;25.63;23.33;99754.16;5327719;26;33260;-90
2021/04/02 07:26:50;;;;;;;;;;;;;;;25.63;23.27;99756.81;5326525;26;32864;-91
2021/04/02 07:29:18;;;;;;;;;;;;;;;25.43;23.61;99763.16;5326596;26;33113;-92
2021/04/02 07:31:45;;;;;;;;;;;;;;;25.15;24.15;99765.69;5327554;26;32835;-91
2021/04/02 07:34:13;;;;;;;;;;;;;;;25.72;23.28;99772.94;5326954;26;31711;-91
2021/04/02 07:36:40;;;;;;;;;;;;;;;25.48;23.59;99780.41;5326756;26;33109;-91
2021/04/02 07:39:08;;;;;;;;;;;;;;;25.03;24.17;99788.97;5345730;26;35369;-91
2021/04/02 07:41:53;;;;;;;;;;;;;;;25.29;23.88;99783.91;5344557;26;33429;-91
2021/04/02 07:44:20;;;;;;;;;;;;;;;25.50;23.79;99789.13;5326355;26;32398;-91
2021/04/02 07:47:08;;;;;;;;;;;;;;;25.98;23.22;99784.66;5344680;26;34001;-90
2021/04/02 07:49:40;;;;;;;;;;;;;;;25.55;23.75;99791.34;5345229;26;32999;-91
2021/04/02 07:52:07;;;;;;;;;;;;;;;25.83;23.43;99786.94;5326598;26;32974;-90
2021/04/02 07:54:40;;;;;;;;;;;;;;;26.51;22.55;99790.31;5326904;26;31920;-92
2021/04/02 07:57:11;;;;;;;;;;;;;;;25.96;23.25;99786.59;5329148;26;32770;-92
2021/04/02 07:59:41;;;;;;;;;;;;;;;26.01;23.18;99788.84;5347736;26;33055;-91
2021/04/02 08:02:09;;;;;;;;;;;;;;;26.14;23.12;99793.91;5368052;26;33992;-90
2021/04/02 08:04:51;;;;;;;;;;;;;;;26.36;22.87;99799.84;5346564;26;33345;-91
2021/04/02 08:07:29;;;;;;;;;;;;;;;25.23;24.27;99791.66;5327394;26;32896;-91
2021/04/02 08:09:57;;;;;;;;;;;;;;;26.29;23.01;99797.75;5327496;26;32821;-91
2021/04/02 08:12:33;;;;;;;;;;;;;;;26.98;22.19;99800.88;5346787;26;32877;-92
2021/04/02 08:15:04;;;;;;;;;;;;;;;27.13;22.08;99803.84;5326557;26;32204;-91
2021/04/02 08:17:31;;;;;;;;;;;;;;;27.22;21.84;99810.13;5326129;26;32947;-91
2021/04/02 08:20:25;;;;;;;;;;;;;;;27.05;22.17;99819.00;5344307;26;33326;-91
2021/04/02 08:22:52;;;;;;;;;;;;;;;27.10;21.70;99811.34;5341149;26;32731;-91
2021/04/02 08:25:20;;;;;;;;;;;;;;;26.97;21.92;99809.87;5325840;26;33616;-89
2021/04/02 08:27:47;;;;;;;;;;;;;;;27.02;21.99;99808.56;5325815;26;34499;-92
2021/04/02 08:30:15;;;;;;;;;;;;;;;26.85;22.12;99803.09;5326162;26;34022;-91
2021/04/02 08:32:46;;;;;;;;;;;;;;;26.90;22.07;99807.97;5344784;26;33684;-91
2021/04/02 08:35:14;;;;;;;;;;;;;;;27.13;21.85;99808.38;5326794;26;32093;-90
2021/04/02 08:37:55;;;;;;;;;;;;;;;26.64;22.39;99814.00;5326740;26;32929;-92
2021/04/02 08:40:21;;;;;;;;;;;;;;;27.56;21.40;99803.22;5345738;26;33161;-91
2021/04/02 08:42:50;;;;;;;;;;;;;;;27.10;21.99;99806.00;5345597;26;33937;-91
2021/04/02 08:45:18;;;;;;;;;;;;;;;26.95;22.19;99806.53;5326592;26;32542;-91
2021/04/02 08:47:46;;;;;;;;;;;;;;;27.78;20.84;99799.19;5345234;26;34719;-91
2021/04/02 08:50:14;;;;;;;;;;;;;;;27.40;21.53;99798.59;5346206;26;34120;-90
2021/04/02 08:52:41;;;;;;;;;;;;;;;27.47;21.25;99805.00;5327423;26;33901;-90
2021/04/02 08:55:08;;;;;;;;;;;;;;;28.32;20.46;99797.16;5327319;26;31953;-90
2021/04/02 08:57:36;;;;;;;;;;;;;;;28.11;20.66;99800.25;5346075;26;34079;-91
2021/04/02 09:00:07;;;;;;;;;;;;;;;28.75;20.03;99794.47;5327357;26;33858;-90
2021/04/02 09:02:35;;;;;;;;;;;;;;;28.93;19.67;99797.03;5326700;26;33170;-91
2021/04/02 09:05:03;;;;;;;;;;;;;;;28.55;19.88;99803.78;5326750;26;32121;-91
2021/04/02 09:07:39;;;;;;;;;;;;;;;28.09;20.20;99798.72;5327584;26;33073;-91
2021/04/02 09:10:10;;;;;;;;;;;;;;;28.61;19.55;99809.31;5326834;26;33334;-91
2021/04/02 09:12:37;;;;;;;;;;;;;;;29.20;18.30;99797.72;5363207;26;33191;-91
2021/04/02 09:15:05;;;;;;;;;;;;;;;28.56;19.60;99800.94;5346377;26;32687;-90
2021/04/02 09:17:33;;;;;;;;;;;;;;;28.20;19.91;99797.59;5348095;26;33771;-90
2021/04/02 09:20:00;;;;;;;;;;;;;;;28.31;20.16;99808.88;5348706;26;34324;-91
2021/04/02 09:22:28;;;;;;;;;;;;;;;28.90;19.64;99812.59;5350680;26;33693;-91
2021/04/02 09:24:55;;;;;;;;;;;;;;;29.09;19.19;99811.44;5332742;26;33551;-91
2021/04/02 09:27:23;;;;;;;;;;;;;;;29.07;19.08;99803.56;5346279;26;33041;-91
2021/04/02 09:29:56;;;;;;;;;;;;;;;27.60;20.52;99802.78;5326016;26;32818;-90
2021/04/02 09:32:28;;;;;;;;;;;;;;;28.76;19.02;99804.19;5328495;26;33637;-91
2021/04/02 09:34:59;;;;;;;;;;;;;;;29.29;18.79;99811.97;5349346;26;33096;-91
2021/04/02 09:37:28;;;;;;;;;;;;;;;29.58;18.46;99806.09;5330797;26;33006;-90
2021/04/02 09:39:59;;;;;;;;;;;;;;;28.65;18.42;99809.84;5349662;26;34053;-91
2021/04/02 09:42:26;;;;;;;;;;;;;;;28.94;17.27;99811.25;5349482;26;33154;-90
2021/04/02 09:45:03;;;;;;;;;;;;;;;28.81;17.65;99809.91;5333153;26;31993;-91
2021/04/02 09:47:44;;;;;;;;;;;;;;;29.38;16.80;99815.50;5350880;26;34700;-91
2021/04/02 09:50:17;;;;;;;;;;;;;;;28.65;17.19;99816.06;5332244;26;32935;-90
2021/04/02 09:52:45;;;;;;;;;;;;;;;29.23;16.56;99797.38;5329835;26;35210;-90
2021/04/02 09:55:13;;;;;;;;;;;;;;;28.93;17.47;99794.34;5349010;26;33498;-91
2021/04/02 09:57:42;;;;;;;;;;;;;;;28.78;18.40;99795.97;5330440;26;34637;-92
2021/04/02 10:00:10;;;;;;;;;;;;;;;28.44;18.50;99807.56;5330969;26;33558;-90
2021/04/02 10:02:39;;;;;;;;;;;;;;;29.03;17.05;99804.06;5348804;26;34043;-91
2021/04/02 10:05:07;;;;;;;;;;;;;;;29.15;16.29;99798.19;5348526;26;32268;-91
2021/04/02 10:07:34;;;;;;;;;;;;;;;29.11;16.72;99793.34;5348342;26;32866;-90
2021/04/02 10:10:02;;;;;;;;;;;;;;;29.39;16.83;99790.38;5331980;26;34353;-91
2021/04/02 10:12:29;;;;;;;;;;;;;;;28.68;17.47;99785.41;5331334;26;33604;-91
2021/04/02 10:15:03;;;;;;;;;;;;;;;27.92;18.12;99797.75;5332342;26;32278;-92
2021/04/02 10:17:30;;;;;;;;;;;;;;;28.24;16.99;99796.28;5348914;26;33678;-91
2021/04/02 10:19:57;;;;;;;;;;;;;;;28.34;16.57;99797.00;5349207;26;33264;-92
2021/04/02 10:22:26;;;;;;;;;;;;;;;28.83;16.01;99797.16;5330948;26;32492;-92
2021/04/02 10:24:53;;;;;;;;;;;;;;;28.54;16.56;99792.19;5349289;26;32938;-91
2021/04/02 10:27:20;;;;;;;;;;;;;;;28.62;16.69;99788.72;5348715;26;35151;-91
2021/04/02 10:29:48;;;;;;;;;;;;;;;28.65;16.71;99788.41;5348967;26;32997;-92
2021/04/02 10:32:16;;;;;;;;;;;;;;;28.60;16.02;99780.84;5348493;26;33003;-91
2021/04/02 10:34:43;;;;;;;;;;;;;;;28.28;16.29;99787.78;5330408;26;32236;-90
2021/04/02 10:37:11;;;;;;;;;;;;;;;28.27;16.52;99788.75;5330375;26;32893;-91
2021/04/02 10:39:38;;;;;;;;;;;;;;;28.52;16.29;99780.81;5329956;26;33019;-91
2021/04/02 10:42:07;;;;;;;;;;;;;;;29.43;15.31;99772.91;5331553;26;32617;-91
2021/04/02 10:44:35;;;;;;;;;;;;;;;28.09;16.68;99788.00;5329788;26;33196;-91
2021/04/02 10:47:02;;;;;;;;;;;;;;;28.60;16.18;99777.31;5330346;26;32464;-92
2021/04/02 10:49:30;;;;;;;;;;;;;;;28.37;16.28;99775.22;5366678;26;34230;-91
2021/04/02 10:51:58;;;;;;;;;;;;;;;27.49;16.92;99779.75;5330779;26;32707;-91
2021/04/02 10:54:25;;;;;;;;;;;;;;;27.77;16.57;99773.41;5348433;26;33507;-91
2021/04/02 10:56:52;;;;;;;;;;;;;;;28.81;15.83;99771.50;5330087;26;32504;-91
2021/04/02 10:59:19;;;;;;;;;;;;;;;28.59;15.66;99771.13;5330106;26;33244;-92
2021/04/02 11:01:47;;;;;;;;;;;;;;;28.44;15.72;99778.09;5329957;26;32807;-92
2021/04/02 11:04:14;;;;;;;;;;;;;;;28.31;15.85;99771.38;5329871;26;32311;-91
2021/04/02 11:06:41;;;;;;;;;;;;;;;27.80;16.04;99771.28;5330378;26;33018;-91
2021/04/02 11:09:09;;;;;;;;;;;;;;;27.65;16.42;99762.13;5330168;26;32914;-91
2021/04/02 11:11:37;;;;;;;;;;;;;;;28.55;15.68;99761.72;5349004;26;34422;-91
2021/04/02 11:14:04;;;;;;;;;;;;;;;27.65;16.73;99757.63;5330901;26;31996;-90
2021/04/02 11:16:36;;;;;;;;;;;;;;;28.27;16.28;99759.31;5332646;26;33049;-91
2021/04/02 11:19:03;;;;;;;;;;;;;;;28.55;16.05;99756.38;5349719;26;34625;-92
2021/04/02 11:21:31;;;;;;;;;;;;;;;28.42;15.73;99746.09;5330678;26;32913;-91
2021/04/02 11:23:58;;;;;;;;;;;;;;;28.52;15.82;99745.12;5331240;26;31950;-91
2021/04/02 11:26:25;;;;;;;;;;;;;;;28.62;15.31;99741.28;5349026;26;34749;-91
2021/04/02 11:28:52;;;;;;;;;;;;;;;28.56;14.95;99730.41;5330555;26;33588;-91
2021/04/02 11:31:21;;;;;;;;;;;;;;;28.36;14.59;99740.56;5348366;26;34157;-91
2021/04/02 11:33:49;;;;;;;;;;;;;;;28.91;13.91;99734.66;5330710;26;32383;-92
2021/04/02 11:36:16;;;;;;;;;;;;;;;28.98;13.85;99727.66;5331692;26;33104;-92
2021/04/02 11:38:44;;;;;;;;;;;;;;;28.76;13.95;99733.63;5332587;26;33278;-90
2021/04/02 11:41:12;;;;;;;;;;;;;;;28.92;13.52;99728.31;5350472;26;32949;-92
2021/04/02 11:43:39;;;;;;;;;;;;;;;29.42;12.93;99728.28;5331600;26;33450;-92
2021/04/02 11:46:07;;;;;;;;;;;;;;;29.70;12.68;99720.66;5332660;26;33734;-92
2021/04/02 11:48:35;;;;;;;;;;;;;;;27.86;14.53;99724.28;5349280;26;35215;-91
2021/04/02 11:51:02;;;;;;;;;;;;;;;28.06;14.47;99724.06;5330268;26;32686;-92
2021/04/02 11:53:29;;;;;;;;;;;;;;;28.77;13.87;99722.78;5330122;26;32141;-91
2021/04/02 11:55:58;;;;;;;;;;;;;;;29.67;13.59;99720.19;5330184;26;32561;-92
2021/04/02 11:58:27;;;;;;;;;;;;;;;30.33;12.78;99715.41;5349035;26;34053;-91
2021/04/02 12:00:56;;;;;;;;;;;;;;;29.21;13.21;99723.44;5330486;26;34071;-92
2021/04/02 12:03:25;;;;;;;;;;;;;;;27.72;14.25;99723.06;5330968;26;32387;-91
2021/04/02 12:05:54;;;;;;;;;;;;;;;28.08;14.65;99722.06;5330071;26;33813;-92
2021/04/02 12:08:21;;;;;;;;;;;;;;;29.26;13.81;99718.44;5330057;26;33000;-92
2021/04/02 12:10:49;;;;;;;;;;;;;;;30.00;13.57;99720.94;5348025;26;34195;-92
2021/04/02 12:13:29;;;;;;;;;;;;;;;30.47;13.32;99716.53;5336085;26;32313;-90
2021/04/02 12:15:57;;;;;;;;;;;;;;;29.31;14.39;99716.06;5332963;26;32967;-91
2021/04/02 12:18:24;;;;;;;;;;;;;;;29.94;14.04;99714.44;5350797;26;33102;-92
2021/04/02 12:20:52;;;;;;;;;;;;;;;28.83;15.22;99713.22;5333010;26;33115;-92
2021/04/02 12:23:21;;;;;;;;;;;;;;;29.40;14.78;99723.09;5350820;26;32238;-91
2021/04/02 12:25:48;;;;;;;;;;;;;;;29.39;15.14;99724.09;5348552;26;32881;-91
2021/04/02 12:28:15;;;;;;;;;;;;;;;29.22;15.96;99719.75;5329428;26;34288;-91
2021/04/02 12:30:43;;;;;;;;;;;;;;;28.82;16.71;99715.03;5312448;26;33290;-91
2021/04/02 12:33:11;;;;;;;;;;;;;;;29.16;16.66;99714.03;5329898;26;32541;-91
2021/04/02 12:35:38;;;;;;;;;;;;;;;29.40;16.48;99719.59;5347568;26;34190;-91
2021/04/02 12:38:10;;;;;;;;;;;;;;;28.72;17.26;99722.44;5330393;26;33426;-92
2021/04/02 12:40:38;;;;;;;;;;;;;;;29.82;16.18;99718.47;5348656;26;34074;-92
2021/04/02 12:43:05;;;;;;;;;;;;;;;28.38;17.62;99723.31;5329721;26;32889;-91
2021/04/02 12:45:34;;;;;;;;;;;;;;;28.96;17.08;99705.50;5347650;26;33270;-92
2021/04/02 12:48:01;;;;;;;;;;;;;;;28.89;16.97;99703.66;5347993;26;35268;-91
2021/04/02 12:50:29;;;;;;;;;;;;;;;26.86;18.49;99705.03;5348140;26;34298;-91
2021/04/02 12:52:57;;;;;;;;;;;;;;;27.08;17.82;99699.19;5329194;26;32317;-92
2021/04/02 12:55:25;;;;;;;;;;;;;;;26.07;18.59;99694.00;5329609;26;33083;-91
2021/04/02 12:57:53;;;;;;;;;;;;;;;27.17;16.02;99681.37;5347142;26;34179;-90